createdAt,value
2023-04-25T00:00:11.449Z,35.50
2023-04-25T00:03:02.862Z,37.10
2023-04-25T00:05:31.714Z,35.50
2023-04-25T00:08:00.172Z,36.60
2023-04-25T00:10:28.433Z,35.70
2023-04-25T00:12:56.710Z,32.00
2023-04-25T00:15:25.606Z,35.00
2023-04-25T00:17:54.158Z,36.60
2023-04-25T00:20:23.175Z,37.00
2023-04-25T00:22:53.914Z,37.70
2023-04-25T00:25:22.082Z,41.20
2023-04-25T00:27:50.477Z,41.10
2023-04-25T00:30:18.637Z,40.30
2023-04-25T00:32:47.177Z,37.30
2023-04-25T00:35:15.811Z,36.30
2023-04-25T00:37:43.983Z,41.80
2023-04-25T00:40:12.560Z,43.00
2023-04-25T00:42:42.659Z,38.00
2023-04-25T00:45:15.376Z,41.40
2023-04-25T00:47:44.409Z,41.50
2023-04-25T00:50:13.640Z,40.90
2023-04-25T00:55:13.775Z,42.30
2023-04-25T00:57:42.672Z,42.10
2023-04-25T01:00:15.261Z,43.90
2023-04-25T01:02:43.998Z,40.40
2023-04-25T01:05:13.327Z,41.80
2023-04-25T01:10:11.009Z,42.60
2023-04-25T01:15:08.158Z,45.20
2023-04-25T01:17:36.940Z,40.70
2023-04-25T01:22:34.733Z,34.70
2023-04-25T01:25:03.848Z,34.50
2023-04-25T01:27:33.033Z,37.20
2023-04-25T01:30:06.777Z,34.70
2023-04-25T01:32:39.739Z,34.80
2023-04-25T01:35:13.009Z,31.40
2023-04-25T01:37:42.922Z,31.00
2023-04-25T01:40:13.970Z,32.00
2023-04-25T01:45:13.048Z,34.00
2023-04-25T01:47:42.727Z,33.10
2023-04-25T01:50:12.601Z,30.70
2023-04-25T01:52:41.135Z,33.60
2023-04-25T01:57:41.522Z,32.00
2023-04-25T02:00:11.034Z,33.50
2023-04-25T02:02:42.303Z,29.90
2023-04-25T02:05:23.036Z,29.10
2023-04-25T02:07:51.213Z,31.50
2023-04-25T02:10:19.499Z,31.70
2023-04-25T02:13:08.030Z,30.60
2023-04-25T02:15:59.747Z,30.00
2023-04-25T02:18:28.051Z,29.40
2023-04-25T02:20:56.618Z,30.30
2023-04-25T02:23:24.755Z,31.10
2023-04-25T02:25:53.583Z,31.20
2023-04-25T02:28:21.956Z,30.50
2023-04-25T02:30:49.973Z,31.30
2023-04-25T02:33:18.304Z,27.50
2023-04-25T02:35:46.545Z,30.10
2023-04-25T02:38:14.977Z,29.90
2023-04-25T02:40:43.239Z,32.20
2023-04-25T02:43:11.568Z,29.50
2023-04-25T02:45:39.874Z,31.50
2023-04-25T02:48:08.287Z,32.60
2023-04-25T02:50:36.441Z,35.10
2023-04-25T02:53:04.685Z,30.90
2023-04-25T02:55:38.311Z,33.80
2023-04-25T02:58:06.904Z,35.60
2023-04-25T03:00:41.735Z,31.80
2023-04-25T03:03:10.289Z,34.00
2023-04-25T03:05:38.731Z,28.90
2023-04-25T03:08:07.165Z,28.50
2023-04-25T03:10:35.852Z,30.40
2023-04-25T03:13:06.631Z,29.00
2023-04-25T03:15:37.212Z,26.00
2023-04-25T03:18:05.642Z,30.80
2023-04-25T03:20:33.782Z,30.10
2023-04-25T03:23:02.031Z,27.30
2023-04-25T03:25:31.012Z,28.90
2023-04-25T03:27:59.201Z,27.20
2023-04-25T03:30:27.902Z,27.40
2023-04-25T03:32:56.540Z,27.50
2023-04-25T03:35:25.929Z,27.80
2023-04-25T03:37:54.771Z,29.30
2023-04-25T03:40:29.182Z,31.50
2023-04-25T03:43:36.268Z,28.80
2023-04-25T03:46:07.029Z,26.10
2023-04-25T03:48:35.394Z,28.10
2023-04-25T03:51:03.860Z,29.20
2023-04-25T03:53:32.540Z,28.50
2023-04-25T03:56:23.740Z,27.30
2023-04-25T03:58:58.069Z,28.80
2023-04-25T04:01:27.376Z,29.70
2023-04-25T04:03:56.442Z,29.10
2023-04-25T04:06:26.791Z,28.50
2023-04-25T04:09:02.723Z,32.70
2023-04-25T04:11:33.584Z,35.60
2023-04-25T04:14:01.767Z,32.20
2023-04-25T04:16:31.451Z,32.70
2023-04-25T04:19:00.882Z,30.40
2023-04-25T04:21:29.453Z,32.00
2023-04-25T04:23:58.896Z,30.20
2023-04-25T04:26:27.950Z,35.00
2023-04-25T04:29:08.150Z,32.50
2023-04-25T04:31:56.784Z,32.20
2023-04-25T04:36:56.170Z,28.70
2023-04-25T04:39:24.434Z,28.70
2023-04-25T04:42:10.242Z,28.30
2023-04-25T04:44:56.131Z,28.90
2023-04-25T04:47:44.179Z,30.80
2023-04-25T04:50:33.807Z,27.40
2023-04-25T04:53:24.479Z,34.90
2023-04-25T04:56:26.460Z,35.80
2023-04-25T04:58:54.682Z,29.30
2023-04-25T05:01:31.777Z,30.80
2023-04-25T05:04:22.911Z,33.80
2023-04-25T05:07:14.287Z,32.10
2023-04-25T05:10:03.146Z,31.20
2023-04-25T05:12:49.858Z,32.30
2023-04-25T05:15:36.730Z,30.20
2023-04-25T05:18:23.933Z,31.40
2023-04-25T05:21:07.110Z,31.20
2023-04-25T05:23:55.147Z,30.10
2023-04-25T05:26:42.189Z,33.20
2023-04-25T05:29:36.457Z,30.70
2023-04-25T05:32:23.614Z,29.90
2023-04-25T05:34:52.854Z,30.40
2023-04-25T05:37:27.795Z,29.10
2023-04-25T05:40:08.060Z,31.60
2023-04-25T05:42:54.758Z,30.00
2023-04-25T05:45:29.178Z,29.40
2023-04-25T05:48:06.298Z,29.30
2023-04-25T05:50:46.012Z,31.00
2023-04-25T05:53:43.344Z,33.10
2023-04-25T05:56:11.942Z,34.00
2023-04-25T05:58:40.319Z,34.10
2023-04-25T06:01:10.135Z,33.90
2023-04-25T06:03:39.689Z,31.80
2023-04-25T06:06:08.388Z,27.30
2023-04-25T06:08:36.560Z,32.00
2023-04-25T06:11:05.898Z,31.70
2023-04-25T06:13:34.247Z,31.90
2023-04-25T06:16:02.876Z,33.50
2023-04-25T06:18:31.441Z,37.40
2023-04-25T06:20:59.833Z,38.40
2023-04-25T06:23:29.117Z,33.60
2023-04-25T06:26:08.375Z,39.10
2023-04-25T06:28:38.350Z,37.80
2023-04-25T06:31:06.882Z,41.10
2023-04-25T06:33:35.202Z,40.60
2023-04-25T06:38:33.312Z,39.10
2023-04-25T06:41:01.469Z,38.20
2023-04-25T06:43:34.386Z,38.80
2023-04-25T06:46:05.171Z,42.40
2023-04-25T06:48:34.913Z,39.60
2023-04-25T06:51:03.453Z,40.00
2023-04-25T06:53:31.794Z,39.10
2023-04-25T06:56:02.365Z,37.40
2023-04-25T06:58:45.371Z,38.20
2023-04-25T07:01:18.444Z,37.20
2023-04-25T07:03:46.776Z,38.30
2023-04-25T07:06:18.546Z,40.60
2023-04-25T07:08:46.961Z,41.10
2023-04-25T07:11:15.510Z,37.30
2023-04-25T07:13:45.778Z,36.30
2023-04-25T07:16:13.984Z,34.20
2023-04-25T07:18:42.690Z,31.90
2023-04-25T07:21:11.260Z,38.00
2023-04-25T07:23:41.924Z,38.50
2023-04-25T07:26:13.772Z,40.80
2023-04-25T07:28:53.410Z,35.40
2023-04-25T07:31:23.060Z,37.00
2023-04-25T07:33:51.312Z,35.10
2023-04-25T07:36:19.384Z,39.90
2023-04-25T07:38:47.669Z,40.10
2023-04-25T07:41:15.677Z,41.70
2023-04-25T07:43:44.400Z,38.80
2023-04-25T07:46:12.562Z,40.00
2023-04-25T07:48:40.739Z,36.10
2023-04-25T07:51:08.995Z,42.10
2023-04-25T07:53:38.768Z,40.80
2023-04-25T07:56:10.374Z,42.30
2023-04-25T07:58:40.299Z,42.60
2023-04-25T08:01:10.522Z,39.30
2023-04-25T08:03:39.079Z,35.90
2023-04-25T08:06:11.404Z,33.30
2023-04-25T08:08:50.006Z,32.30
2023-04-25T08:11:20.106Z,31.30
2023-04-25T08:13:48.376Z,30.60
2023-04-25T08:16:20.083Z,29.60
2023-04-25T08:18:48.426Z,33.10
2023-04-25T08:21:16.465Z,30.10
2023-04-25T08:23:45.991Z,29.90
2023-04-25T08:26:21.439Z,28.20
2023-04-25T08:28:49.679Z,28.80
2023-04-25T08:31:18.847Z,26.40
2023-04-25T08:34:01.706Z,31.20
2023-04-25T08:36:40.565Z,29.30
2023-04-25T08:39:38.387Z,27.70
2023-04-25T08:42:25.748Z,29.10
2023-04-25T08:44:56.061Z,29.10
2023-04-25T08:47:29.630Z,28.30
2023-04-25T08:50:00.918Z,29.10
2023-04-25T08:52:33.743Z,29.00
2023-04-25T08:55:03.818Z,28.40
2023-04-25T08:57:32.829Z,29.50
2023-04-25T09:00:02.191Z,27.20
2023-04-25T09:02:31.380Z,26.50
2023-04-25T09:05:00.422Z,23.50
2023-04-25T09:07:29.682Z,22.30
2023-04-25T09:09:57.730Z,22.00
2023-04-25T09:12:28.517Z,22.20
2023-04-25T09:15:09.603Z,21.90
2023-04-25T09:17:57.683Z,21.30
2023-04-25T09:20:27.735Z,15.60
2023-04-25T09:23:06.480Z,13.80
2023-04-25T09:25:44.076Z,17.40
2023-04-25T09:28:12.109Z,18.70
2023-04-25T09:30:40.758Z,12.70
2023-04-25T09:33:20.144Z,13.20
2023-04-25T09:35:56.312Z,15.10
2023-04-25T09:38:53.905Z,10.80
2023-04-25T09:41:39.771Z,9.60
2023-04-25T09:44:08.115Z,11.40
2023-04-25T09:46:39.444Z,9.50
2023-04-25T09:49:11.124Z,10.10
2023-04-25T09:51:58.162Z,8.70
2023-04-25T09:54:35.536Z,8.10
2023-04-25T09:57:18.687Z,9.60
2023-04-25T09:59:55.095Z,10.50
2023-04-25T10:02:26.436Z,8.80
2023-04-25T10:04:57.729Z,8.60
2023-04-25T10:07:32.118Z,7.30
2023-04-25T10:10:04.670Z,8.20
2023-04-25T10:12:35.029Z,6.30
2023-04-25T10:15:05.726Z,9.00
2023-04-25T10:17:35.326Z,7.30
2023-04-25T10:20:08.772Z,7.30
2023-04-25T10:22:48.554Z,10.20
2023-04-25T10:25:19.940Z,8.90
2023-04-25T10:27:48.061Z,9.80
2023-04-25T10:30:17.037Z,11.00
2023-04-25T10:32:46.948Z,11.20
2023-04-25T10:35:20.667Z,8.00
2023-04-25T10:38:00.932Z,8.30
2023-04-25T10:40:29.244Z,7.80
2023-04-25T10:43:32.508Z,7.30
2023-04-25T10:46:01.891Z,13.90
2023-04-25T10:48:31.545Z,7.40
2023-04-25T10:51:16.523Z,6.10
2023-04-25T10:54:08.287Z,7.80
2023-04-25T10:56:45.186Z,8.80
2023-04-25T10:59:15.788Z,8.60
2023-04-25T11:01:55.811Z,9.40
2023-04-25T11:04:29.728Z,7.50
2023-04-25T11:07:09.190Z,7.10
2023-04-25T11:09:41.195Z,7.30
2023-04-25T11:12:12.770Z,6.50
2023-04-25T11:17:14.393Z,5.00
2023-04-25T11:19:42.964Z,5.10
2023-04-25T11:22:11.752Z,5.80
2023-04-25T11:27:09.532Z,6.90
2023-04-25T11:32:06.334Z,3.90
2023-04-25T11:37:04.119Z,4.70
2023-04-25T11:42:01.865Z,4.40
2023-04-25T11:44:31.360Z,5.20
2023-04-25T11:46:59.548Z,8.20
2023-04-25T11:49:32.514Z,4.10
2023-04-25T11:52:01.101Z,4.60
2023-04-25T11:54:29.262Z,4.50
2023-04-25T11:56:57.797Z,9.40
2023-04-25T11:59:27.525Z,6.60
2023-04-25T12:01:56.034Z,3.60
2023-04-25T12:04:25.827Z,6.70
2023-04-25T12:06:56.436Z,3.60
2023-04-25T12:09:34.963Z,3.20
2023-04-25T12:12:04.215Z,3.70
2023-04-25T12:14:34.549Z,5.80
2023-04-25T12:17:06.315Z,12.90
2023-04-25T12:19:36.806Z,3.20
2023-04-25T12:22:21.271Z,5.00
2023-04-25T12:24:49.328Z,3.10
2023-04-25T12:27:20.237Z,4.00
2023-04-25T12:29:57.353Z,2.70
2023-04-25T12:32:26.226Z,2.30
2023-04-25T12:34:54.478Z,3.30
2023-04-25T12:37:22.680Z,6.40
2023-04-25T12:39:51.677Z,3.80
2023-04-25T12:42:19.955Z,4.50
2023-04-25T12:44:48.008Z,6.60
2023-04-25T12:47:16.431Z,3.40
2023-04-25T12:49:44.400Z,4.70
2023-04-25T12:52:12.573Z,5.50
2023-04-25T12:54:40.758Z,5.90
2023-04-25T12:57:08.996Z,5.30
2023-04-25T12:59:36.986Z,4.50
2023-04-25T13:02:05.843Z,8.20
2023-04-25T13:04:34.582Z,4.10
2023-04-25T13:07:02.905Z,4.60
2023-04-25T13:09:31.194Z,5.70
2023-04-25T13:12:00.006Z,7.80
2023-04-25T13:14:28.022Z,7.60
2023-04-25T13:16:56.751Z,4.90
2023-04-25T13:19:25.018Z,5.60
2023-04-25T13:21:53.045Z,7.40
2023-04-25T13:24:21.153Z,6.00
2023-04-25T13:26:49.165Z,5.70
2023-04-25T13:29:17.386Z,7.50
2023-04-25T13:31:45.518Z,6.40
2023-04-25T13:34:13.775Z,10.10
2023-04-25T13:36:41.996Z,8.60
2023-04-25T13:39:10.183Z,4.80
2023-04-25T13:41:38.597Z,7.20
2023-04-25T13:44:06.633Z,9.70
2023-04-25T13:46:46.478Z,13.70
2023-04-25T13:49:15.855Z,6.50
2023-04-25T13:51:44.157Z,5.30
2023-04-25T13:54:12.714Z,8.40
2023-04-25T13:56:43.450Z,5.10
2023-04-25T13:59:12.483Z,4.10
2023-04-25T14:01:40.707Z,7.90
2023-04-25T14:04:09.652Z,7.00
2023-04-25T14:06:38.008Z,5.80
2023-04-25T14:09:07.823Z,10.10
2023-04-25T14:11:36.367Z,6.00
2023-04-25T14:14:04.612Z,5.40
2023-04-25T14:16:33.292Z,5.70
2023-04-25T14:19:02.151Z,4.20
2023-04-25T14:21:33.590Z,4.90
2023-04-25T14:24:02.201Z,4.60
2023-04-25T14:26:30.265Z,5.80
2023-04-25T14:28:58.293Z,4.00
2023-04-25T14:31:26.441Z,10.20
2023-04-25T14:33:56.979Z,8.60
2023-04-25T14:36:27.768Z,7.20
2023-04-25T14:41:26.049Z,7.10
2023-04-25T14:43:54.522Z,9.00
2023-04-25T14:46:24.497Z,6.00
2023-04-25T14:48:53.197Z,5.10
2023-04-25T14:51:21.826Z,8.10
2023-04-25T14:53:50.117Z,4.90
2023-04-25T14:56:18.686Z,6.50
2023-04-25T14:58:47.286Z,8.30
2023-04-25T15:01:15.538Z,9.30
2023-04-25T15:03:44.384Z,7.50
2023-04-25T15:06:12.731Z,7.70
2023-04-25T15:08:40.984Z,7.20
2023-04-25T15:11:09.208Z,12.60
2023-04-25T15:13:37.946Z,8.20
2023-04-25T15:16:07.188Z,8.40
2023-04-25T15:18:35.362Z,11.00
2023-04-25T15:21:04.409Z,6.70
2023-04-25T15:23:32.583Z,7.30
2023-04-25T15:26:00.680Z,6.30
2023-04-25T15:28:28.817Z,11.20
2023-04-25T15:30:57.102Z,8.70
2023-04-25T15:33:25.170Z,8.40
2023-04-25T15:35:53.617Z,8.60
2023-04-25T15:38:21.735Z,10.20
2023-04-25T15:40:49.801Z,10.80
2023-04-25T15:43:17.966Z,9.20
2023-04-25T15:45:46.219Z,7.70
2023-04-25T15:48:14.388Z,10.30
2023-04-25T15:50:42.692Z,8.00
2023-04-25T15:53:13.422Z,9.20
2023-04-25T15:55:41.726Z,7.70
2023-04-25T15:58:12.748Z,8.40
2023-04-25T16:00:41.834Z,7.50
2023-04-25T16:03:10.973Z,8.30
2023-04-25T16:05:39.634Z,7.00
2023-04-25T16:08:08.317Z,7.00
2023-04-25T16:10:36.901Z,9.40
2023-04-25T16:13:05.160Z,8.70
2023-04-25T16:15:35.454Z,11.80
2023-04-25T16:18:04.306Z,13.10
2023-04-25T16:20:33.002Z,11.30
2023-04-25T16:23:01.503Z,11.70
2023-04-25T16:25:29.722Z,7.40
2023-04-25T16:27:58.189Z,7.50
2023-04-25T16:30:26.423Z,4.90
2023-04-25T16:32:57.241Z,4.10
2023-04-25T16:35:25.998Z,5.00
2023-04-25T16:37:54.063Z,5.30
2023-04-25T16:40:22.290Z,4.00
2023-04-25T16:42:50.500Z,2.30
2023-04-25T16:45:20.484Z,3.00
2023-04-25T16:47:51.797Z,2.00
2023-04-25T16:50:20.763Z,3.70
2023-04-25T16:52:51.387Z,2.10
2023-04-25T16:55:19.792Z,2.70
2023-04-25T16:57:48.032Z,2.90
2023-04-25T17:00:16.913Z,2.10
2023-04-25T17:02:45.230Z,2.70
2023-04-25T17:05:13.649Z,3.40
2023-04-25T17:07:41.746Z,2.40
2023-04-25T17:10:10.923Z,4.70
2023-04-25T17:12:38.990Z,4.50
2023-04-25T17:15:07.870Z,6.20
2023-04-25T17:17:35.938Z,7.20
2023-04-25T17:20:06.867Z,4.00
2023-04-25T17:22:36.348Z,2.90
2023-04-25T17:25:05.423Z,3.40
2023-04-25T17:27:34.440Z,4.10
2023-04-25T17:30:04.148Z,3.40
2023-04-25T17:32:32.252Z,3.90
2023-04-25T17:35:00.469Z,4.20
2023-04-25T17:37:28.847Z,2.90
2023-04-25T17:39:57.980Z,3.80
2023-04-25T17:42:26.343Z,8.60
2023-04-25T17:44:55.749Z,3.80
2023-04-25T17:47:25.069Z,4.60
2023-04-25T17:52:22.094Z,7.40
2023-04-25T17:54:50.223Z,4.50
2023-04-25T17:57:22.825Z,5.30
2023-04-25T17:59:51.514Z,3.90
2023-04-25T18:02:20.045Z,4.70
2023-04-25T18:04:51.633Z,4.40
2023-04-25T18:07:19.934Z,6.80
2023-04-25T18:09:47.928Z,6.00
2023-04-25T18:12:16.882Z,3.50
2023-04-25T18:14:45.981Z,4.90
2023-04-25T18:22:12.968Z,3.00
2023-04-25T18:24:44.828Z,1.90
2023-04-25T18:27:12.907Z,1.50
2023-04-25T18:29:43.221Z,1.70
2023-04-25T18:32:11.525Z,1.50
2023-04-25T18:34:43.858Z,1.80
2023-04-25T18:37:14.376Z,2.20
2023-04-25T18:39:42.922Z,1.40
2023-04-25T18:42:12.361Z,2.20
2023-04-25T18:44:40.968Z,8.00
2023-04-25T18:47:19.096Z,1.70
2023-04-25T18:49:48.032Z,1.70
2023-04-25T18:52:16.611Z,1.40
2023-04-25T18:54:45.868Z,4.00
2023-04-25T18:59:46.444Z,1.80
2023-04-25T19:02:16.259Z,1.70
2023-04-25T19:04:44.660Z,1.30
2023-04-25T19:07:12.982Z,3.30
2023-04-25T19:09:41.195Z,2.00
2023-04-25T19:12:10.115Z,1.60
2023-04-25T19:14:38.406Z,1.60
2023-04-25T19:17:06.761Z,4.50
2023-04-25T19:19:35.031Z,1.40
2023-04-25T19:22:03.281Z,1.80
2023-04-25T19:24:33.336Z,1.80
2023-04-25T19:27:03.126Z,1.70
2023-04-25T19:29:32.840Z,1.60
2023-04-25T19:32:03.407Z,1.80
2023-04-25T19:34:31.976Z,1.90
2023-04-25T19:37:00.841Z,2.30
2023-04-25T19:39:29.355Z,2.30
2023-04-25T19:41:57.800Z,2.60
2023-04-25T19:44:26.919Z,8.00
2023-04-25T19:46:55.088Z,2.80
2023-04-25T19:49:23.161Z,3.10
2023-04-25T19:51:51.825Z,3.00
2023-04-25T19:54:21.589Z,1.90
2023-04-25T19:56:51.031Z,2.70
2023-04-25T19:59:19.008Z,2.20
2023-04-25T20:01:47.388Z,2.40
2023-04-25T20:04:15.689Z,2.40
2023-04-25T20:06:44.308Z,2.80
2023-04-25T20:09:12.417Z,2.60
2023-04-25T20:11:40.464Z,2.60
2023-04-25T20:14:08.559Z,6.10
2023-04-25T20:16:37.694Z,2.20
2023-04-25T20:19:05.819Z,1.90
2023-04-25T20:21:34.616Z,1.40
2023-04-25T20:24:02.786Z,1.00
2023-04-25T20:26:34.172Z,0.90
2023-04-25T20:29:02.456Z,0.90
2023-04-25T20:31:31.879Z,0.80
2023-04-25T20:34:01.092Z,0.60
2023-04-25T20:38:58.273Z,1.00
2023-04-25T20:41:26.826Z,1.60
2023-04-25T20:43:54.909Z,0.70
2023-04-25T20:46:23.218Z,1.00
2023-04-25T20:48:53.024Z,0.80
2023-04-25T20:51:21.694Z,0.70
2023-04-25T20:53:49.765Z,0.90
2023-04-25T20:56:19.278Z,1.10
2023-04-25T21:01:15.556Z,1.80
2023-04-25T21:03:43.743Z,2.00
2023-04-25T21:06:14.045Z,1.30
2023-04-25T21:08:42.622Z,1.20
2023-04-25T21:11:11.947Z,1.40
2023-04-25T21:13:40.047Z,0.90
2023-04-25T21:16:08.208Z,1.30
2023-04-25T21:18:36.411Z,1.10
2023-04-25T21:21:05.417Z,1.00
2023-04-25T21:23:33.790Z,2.00
2023-04-25T21:26:02.056Z,1.10
2023-04-25T21:28:30.112Z,0.90
2023-04-25T21:30:58.344Z,2.80
2023-04-25T21:33:26.525Z,1.50
2023-04-25T21:35:54.850Z,1.10
2023-04-25T21:38:22.924Z,3.10
2023-04-25T21:40:51.109Z,1.10
2023-04-25T21:43:19.473Z,1.80
2023-04-25T21:46:14.634Z,0.70
2023-04-25T21:48:35.811Z,1.40
2023-04-25T21:51:04.613Z,3.90
2023-04-25T21:53:32.596Z,1.20
2023-04-25T21:56:01.086Z,0.80
2023-04-25T21:58:29.106Z,1.30
2023-04-25T22:00:57.177Z,0.90
2023-04-25T22:03:25.669Z,0.90
2023-04-25T22:05:53.895Z,1.50
2023-04-25T22:08:22.294Z,1.10
2023-04-25T22:10:50.490Z,1.40
2023-04-25T22:13:18.638Z,1.80
2023-04-25T22:15:47.783Z,1.00
2023-04-25T22:18:16.493Z,0.70
2023-04-25T22:20:45.023Z,0.70
2023-04-25T22:23:13.923Z,0.80
2023-04-25T22:25:42.546Z,0.60
2023-04-25T22:28:12.721Z,1.00
2023-04-25T22:30:40.895Z,1.30
2023-04-25T22:33:09.076Z,0.70
2023-04-25T22:35:37.299Z,0.70
2023-04-25T22:38:05.333Z,0.90
2023-04-25T22:40:33.652Z,0.80
2023-04-25T22:43:02.240Z,1.10
2023-04-25T22:45:30.334Z,1.40
2023-04-25T22:47:58.775Z,0.80
2023-04-25T22:50:27.161Z,1.10
2023-04-25T22:52:55.335Z,1.20
2023-04-25T22:55:23.854Z,1.20
2023-04-25T22:57:52.918Z,1.60
2023-04-25T23:00:22.063Z,1.50
2023-04-25T23:02:51.117Z,1.30
2023-04-25T23:07:47.273Z,1.50
2023-04-25T23:10:15.435Z,1.20
2023-04-25T23:12:44.080Z,1.00
2023-04-25T23:15:13.740Z,1.20
2023-04-25T23:17:42.427Z,1.40
2023-04-25T23:20:12.177Z,1.10
2023-04-25T23:22:40.580Z,1.70
2023-04-25T23:25:09.696Z,1.60
2023-04-25T23:27:38.200Z,1.60
2023-04-25T23:30:07.155Z,1.50
2023-04-25T23:35:05.353Z,3.20
2023-04-25T23:37:34.652Z,2.40
2023-04-25T23:40:10.196Z,2.20
2023-04-25T23:42:39.894Z,2.50
2023-04-25T23:45:09.535Z,2.70
2023-04-25T23:47:37.929Z,2.70
2023-04-25T23:50:08.113Z,3.00
2023-04-25T23:52:36.359Z,2.70
2023-04-25T23:55:05.780Z,2.70
2023-04-25T23:57:34.260Z,2.90
